Time;durP1;ratioP1;P1;durP2;ratioP2;P2;SDS_P1;SDS_P2;PMS_P1;PMS_P2;Temp;Humidity;BMP_temperature;BMP_pressure;BME280_temperature;BME280_humidity;BME280_pressure;Samples;Min_cycle;Max_cycle;Signal;HPM_P1;HPM_P2
2021/11/17 02:28:19;;;;;;;33.13;13.50;;;5.70;99.90;;;;;;5091110;28;20203;-70
2021/11/17 02:31:12;;;;;;;26.27;14.10;;;5.70;99.90;;;;;;5093531;28;20190;-70
2021/11/17 02:33:53;;;;;;;26.20;12.98;;;5.70;99.90;;;;;;5088090;28;20241;-71
2021/11/17 02:36:35;;;;;;;32.58;14.63;;;5.80;99.90;;;;;;5085216;28;20700;-71
2021/11/17 02:39:16;;;;;;;30.13;13.35;;;5.80;99.90;;;;;;5086803;28;20234;-69
2021/11/17 02:42:00;;;;;;;24.95;11.13;;;5.90;99.90;;;;;;5092710;28;20676;-71
2021/11/17 02:44:49;;;;;;;23.92;11.43;;;6.00;99.90;;;;;;5089970;28;20202;-70
2021/11/17 02:47:29;;;;;;;24.67;13.38;;;6.00;99.90;;;;;;5079344;28;20220;-70
2021/11/17 02:50:19;;;;;;;32.08;11.82;;;6.00;99.90;;;;;;5091721;28;20205;-70
2021/11/17 02:53:01;;;;;;;29.88;14.00;;;6.00;99.90;;;;;;5083980;28;20264;-69
2021/11/17 02:55:47;;;;;;;23.73;13.32;;;6.10;99.90;;;;;;5090851;28;20205;-70
2021/11/17 02:58:33;;;;;;;29.65;14.88;;;6.10;99.90;;;;;;5082484;28;20204;-70
2021/11/17 03:01:45;;;;;;;21.27;11.10;;;6.10;99.90;;;;;;5089945;28;20210;-71
2021/11/17 03:04:25;;;;;;;20.38;11.02;;;6.10;99.90;;;;;;5078984;28;20201;-70
2021/11/17 03:07:14;;;;;;;25.70;13.98;;;6.10;99.90;;;;;;5081759;28;20255;-72
2021/11/17 03:10:07;;;;;;;27.85;12.15;;;6.00;99.90;;;;;;5091442;28;20199;-70
2021/11/17 03:12:59;;;;;;;27.23;12.30;;;5.90;99.90;;;;;;5076659;28;20608;-70
2021/11/17 03:15:48;;;;;;;28.92;13.68;;;5.90;99.90;;;;;;5082760;28;20231;-70
2021/11/17 03:18:27;;;;;;;32.35;13.95;;;5.80;99.90;;;;;;5089464;28;20198;-70
2021/11/17 03:21:13;;;;;;;30.15;13.05;;;5.80;99.90;;;;;;5088808;28;20730;-69
2021/11/17 03:23:53;;;;;;;24.63;14.32;;;5.80;99.90;;;;;;5090540;28;20300;-71
2021/11/17 03:26:41;;;;;;;26.38;13.38;;;5.90;99.90;;;;;;5081274;28;20226;-71
2021/11/17 03:29:36;;;;;;;25.42;12.23;;;5.90;99.90;;;;;;5088806;28;20221;-70
2021/11/17 03:32:26;;;;;;;23.10;13.43;;;5.80;99.90;;;;;;5088897;28;20200;-70
2021/11/17 03:35:16;;;;;;;22.10;11.23;;;5.80;99.90;;;;;;5092230;28;20225;-71
2021/11/17 03:38:08;;;;;;;22.98;12.70;;;5.90;99.90;;;;;;5086445;28;20286;-70
2021/11/17 03:41:05;;;;;;;24.58;13.10;;;6.00;99.90;;;;;;5093560;28;20212;-70
2021/11/17 03:43:56;;;;;;;25.45;13.60;;;5.90;99.90;;;;;;5090784;28;20559;-70
2021/11/17 03:46:40;;;;;;;34.55;13.50;;;5.80;99.90;;;;;;5083671;28;20254;-70
2021/11/17 03:49:20;;;;;;;29.45;13.55;;;5.80;99.90;;;;;;5099771;28;20197;-70
2021/11/17 03:52:03;;;;;;;30.77;12.15;;;5.80;99.90;;;;;;5095392;28;20229;-70
2021/11/17 03:54:52;;;;;;;27.63;13.38;;;5.80;99.90;;;;;;5096015;28;20202;-70
2021/11/17 03:57:31;;;;;;;28.30;12.32;;;5.80;99.90;;;;;;5099155;28;20273;-70
2021/11/17 04:00:32;;;;;;;31.95;13.05;;;5.80;99.90;;;;;;5105107;28;20246;-70
2021/11/17 04:03:17;;;;;;;30.35;14.55;;;5.80;99.90;;;;;;5100482;28;20198;-71
2021/11/17 04:05:55;;;;;;;24.73;13.75;;;5.90;99.90;;;;;;5099326;28;20226;-70
2021/11/17 04:08:38;;;;;;;26.92;13.98;;;5.90;99.90;;;;;;5102666;28;20207;-70
2021/11/17 04:11:24;;;;;;;26.75;14.77;;;6.00;99.90;;;;;;5101693;28;20198;-70
2021/11/17 04:14:00;;;;;;;22.02;12.48;;;6.10;99.90;;;;;;5099862;28;20268;-70
2021/11/17 04:16:42;;;;;;;22.98;11.70;;;6.10;99.90;;;;;;5102827;28;20222;-70
2021/11/17 04:19:20;;;;;;;29.23;14.25;;;6.10;99.90;;;;;;5099977;28;20330;-70
2021/11/17 04:22:04;;;;;;;31.55;14.05;;;6.00;99.90;;;;;;5099736;28;20208;-70
2021/11/17 04:24:54;;;;;;;27.98;13.65;;;6.00;99.90;;;;;;5100457;28;20244;-70
2021/11/17 04:27:34;;;;;;;41.03;16.67;;;5.90;99.90;;;;;;5097975;28;20636;-69
2021/11/17 04:30:21;;;;;;;27.27;13.15;;;6.00;99.90;;;;;;5098112;28;20195;-70
2021/11/17 04:33:03;;;;;;;34.13;14.85;;;6.00;99.90;;;;;;5090826;28;20214;-70
2021/11/17 04:35:57;;;;;;;32.03;13.63;;;5.90;99.90;;;;;;5094606;28;20234;-69
2021/11/17 04:38:40;;;;;;;24.77;12.93;;;5.90;99.90;;;;;;5069644;28;20237;-70
2021/11/17 04:41:21;;;;;;;32.70;14.05;;;5.90;99.90;;;;;;5097002;28;20294;-71
2021/11/17 04:44:07;;;;;;;36.83;14.80;;;5.90;99.90;;;;;;5093701;28;20203;-71
2021/11/17 04:46:47;;;;;;;31.85;14.70;;;5.90;99.90;;;;;;5093239;28;20225;-71
2021/11/17 04:49:32;;;;;;;39.40;16.58;;;5.90;99.90;;;;;;5093621;28;20214;-69
2021/11/17 04:52:26;;;;;;;36.20;14.88;;;6.00;99.90;;;;;;5091820;28;20260;-70
2021/11/17 04:55:23;;;;;;;38.72;16.50;;;6.00;99.90;;;;;;5095626;28;20202;-69
2021/11/17 04:58:06;;;;;;;37.00;14.68;;;5.90;99.90;;;;;;5099868;28;20204;-69
2021/11/17 05:00:48;;;;;;;36.60;16.40;;;5.90;99.90;;;;;;5103179;28;20200;-69
2021/11/17 05:03:30;;;;;;;38.33;15.68;;;6.00;99.90;;;;;;5100519;28;20194;-71
2021/11/17 05:06:16;;;;;;;37.42;16.60;;;5.90;99.90;;;;;;5089174;28;20276;-71
2021/11/17 05:08:54;;;;;;;41.25;16.55;;;5.90;99.90;;;;;;5094752;28;20229;-70
2021/11/17 05:11:33;;;;;;;49.53;18.13;;;5.90;99.90;;;;;;5099941;28;20206;-69
2021/11/17 05:14:07;;;;;;;40.25;19.42;;;5.90;99.90;;;;;;5097702;28;20197;-69
2021/11/17 05:16:51;;;;;;;44.83;18.00;;;5.90;99.90;;;;;;5100326;28;20223;-70
2021/11/17 05:19:27;;;;;;;45.72;17.73;;;5.90;99.90;;;;;;5094865;28;20199;-70
2021/11/17 05:22:10;;;;;;;40.47;16.73;;;5.90;99.90;;;;;;5089095;28;20230;-70
2021/11/17 05:24:50;;;;;;;43.67;17.67;;;6.00;99.90;;;;;;5095227;28;20280;-71
2021/11/17 05:27:29;;;;;;;41.10;18.70;;;6.00;99.90;;;;;;5089373;28;20364;-71
2021/11/17 05:30:10;;;;;;;45.60;18.08;;;6.00;99.90;;;;;;5096683;28;20195;-70
2021/11/17 05:32:56;;;;;;;49.15;18.83;;;6.10;99.90;;;;;;5100075;28;20244;-71
2021/11/17 05:35:42;;;;;;;42.05;17.23;;;6.10;99.90;;;;;;5083380;28;20214;-71
2021/11/17 05:38:22;;;;;;;47.05;17.40;;;6.10;99.90;;;;;;5094847;28;20325;-72
2021/11/17 05:41:11;;;;;;;32.63;16.30;;;6.10;99.90;;;;;;5099347;28;20200;-72
2021/11/17 05:43:51;;;;;;;42.22;19.65;;;6.20;99.90;;;;;;5097712;28;20242;-72
2021/11/17 05:46:29;;;;;;;39.80;17.75;;;6.30;99.90;;;;;;5090247;28;20219;-70
2021/11/17 05:49:08;;;;;;;51.72;19.08;;;6.30;99.90;;;;;;5093961;28;20193;-70
2021/11/17 05:51:59;;;;;;;38.63;17.67;;;6.30;99.90;;;;;;5093118;28;20269;-70
2021/11/17 05:54:51;;;;;;;41.50;17.73;;;6.30;99.90;;;;;;5096024;28;20200;-70
2021/11/17 05:57:31;;;;;;;41.58;17.98;;;6.30;99.90;;;;;;5091129;28;20218;-71
2021/11/17 06:00:23;;;;;;;38.95;18.23;;;6.30;99.90;;;;;;5092767;28;20281;-69
2021/11/17 06:03:08;;;;;;;37.00;16.80;;;6.30;99.90;;;;;;5102160;28;20264;-71
2021/11/17 06:05:34;;;;;;;41.53;18.85;;;6.40;99.90;;;;;;5095854;28;20271;-70
2021/11/17 06:08:03;;;;;;;42.70;19.63;;;6.40;99.90;;;;;;5103821;28;20275;-70
2021/11/17 06:10:34;;;;;;;42.35;19.50;;;6.40;99.90;;;;;;5078292;28;20567;-71
2021/11/17 06:13:04;;;;;;;33.20;17.73;;;6.40;99.90;;;;;;5079924;28;20201;-71
2021/11/17 06:15:32;;;;;;;43.70;18.48;;;6.40;99.90;;;;;;5093591;28;20235;-71
2021/11/17 06:18:01;;;;;;;39.63;18.90;;;6.50;99.90;;;;;;5084490;28;20198;-72
2021/11/17 06:20:30;;;;;;;34.75;17.77;;;6.60;99.90;;;;;;5080249;28;20548;-72
2021/11/17 06:23:01;;;;;;;40.38;18.10;;;6.50;99.90;;;;;;5093989;28;20772;-72
2021/11/17 06:25:28;;;;;;;40.08;19.58;;;6.60;99.90;;;;;;5078411;28;20226;-72
2021/11/17 06:28:02;;;;;;;36.35;21.30;;;6.60;99.90;;;;;;5093442;28;20287;-72
2021/11/17 06:30:30;;;;;;;38.97;18.92;;;6.60;99.90;;;;;;5087064;28;20702;-72
2021/11/17 06:32:57;;;;;;;43.45;18.38;;;6.60;99.90;;;;;;5092663;28;20200;-72
2021/11/17 06:35:25;;;;;;;37.28;19.05;;;6.50;99.90;;;;;;5090662;28;20215;-72
2021/11/17 06:37:52;;;;;;;42.15;20.48;;;6.50;99.90;;;;;;5086926;28;20197;-70
2021/11/17 06:40:22;;;;;;;39.55;20.25;;;6.50;99.90;;;;;;5082587;28;20225;-71
2021/11/17 06:42:51;;;;;;;49.67;20.65;;;6.40;99.90;;;;;;5089618;28;20203;-71
2021/11/17 06:45:23;;;;;;;47.28;19.42;;;6.40;99.90;;;;;;5085130;28;20213;-73
2021/11/17 06:47:50;;;;;;;46.50;19.17;;;6.40;99.90;;;;;;5085930;28;20234;-71
2021/11/17 06:50:19;;;;;;;44.70;20.77;;;6.40;99.90;;;;;;5084642;28;20203;-71
2021/11/17 06:52:46;;;;;;;52.58;20.63;;;6.40;99.90;;;;;;5092679;28;20241;-72
2021/11/17 06:55:14;;;;;;;40.97;21.05;;;6.40;99.90;;;;;;5089443;28;20234;-72
2021/11/17 06:57:41;;;;;;;49.15;23.42;;;6.40;99.90;;;;;;5085877;28;20196;-72
2021/11/17 07:00:11;;;;;;;48.58;21.52;;;6.40;99.90;;;;;;5075750;28;20204;-72
2021/11/17 07:02:40;;;;;;;44.00;21.13;;;6.50;99.90;;;;;;5093432;28;20748;-74
2021/11/17 07:05:08;;;;;;;39.22;22.02;;;6.60;99.90;;;;;;5088453;28;20206;-72
2021/11/17 07:07:36;;;;;;;39.90;18.88;;;6.60;99.90;;;;;;5098107;28;20225;-72
2021/11/17 07:10:04;;;;;;;39.33;21.02;;;6.70;99.90;;;;;;5096149;28;20562;-70
2021/11/17 07:12:31;;;;;;;44.50;21.80;;;6.70;99.90;;;;;;5092791;28;20536;-72
2021/11/17 07:14:58;;;;;;;46.80;22.98;;;6.70;99.90;;;;;;5097038;28;20245;-73
2021/11/17 07:17:26;;;;;;;43.60;23.60;;;6.80;99.90;;;;;;5093790;28;20319;-71
2021/11/17 07:19:55;;;;;;;49.92;23.15;;;6.80;99.90;;;;;;5080082;28;20205;-70
2021/11/17 07:22:22;;;;;;;54.28;23.77;;;6.80;99.90;;;;;;5092666;28;20227;-70
2021/11/17 07:24:49;;;;;;;47.80;21.63;;;6.70;99.90;;;;;;5088147;28;20582;-73
2021/11/17 07:27:22;;;;;;;53.83;22.13;;;6.70;99.90;;;;;;5082985;28;20221;-73
2021/11/17 07:29:52;;;;;;;58.25;24.23;;;6.80;99.90;;;;;;5079536;28;20205;-73
2021/11/17 07:32:20;;;;;;;44.85;23.15;;;6.90;99.90;;;;;;5082785;28;20647;-71
2021/11/17 07:34:47;;;;;;;51.90;23.15;;;6.80;99.90;;;;;;5092114;28;20204;-73
2021/11/17 07:37:15;;;;;;;46.38;22.77;;;6.80;99.90;;;;;;5088352;28;20218;-73
2021/11/17 07:39:43;;;;;;;45.97;21.85;;;6.90;99.90;;;;;;5097116;28;20205;-74
2021/11/17 07:42:10;;;;;;;45.65;23.35;;;7.00;99.90;;;;;;5082572;28;20218;-73
2021/11/17 07:44:38;;;;;;;40.80;20.90;;;7.10;99.90;;;;;;5083797;28;20259;-72
2021/11/17 07:47:06;;;;;;;51.15;22.60;;;7.00;99.90;;;;;;5081891;28;20654;-74
2021/11/17 07:49:33;;;;;;;47.97;20.88;;;7.10;99.90;;;;;;5077026;28;20281;-75
2021/11/17 07:52:01;;;;;;;48.78;22.85;;;7.10;99.90;;;;;;5082120;28;20546;-73
2021/11/17 07:54:30;;;;;;;51.55;23.35;;;7.10;99.90;;;;;;5080270;28;20210;-72
2021/11/17 07:56:58;;;;;;;53.13;22.40;;;7.10;99.90;;;;;;5080059;28;20265;-72
2021/11/17 07:59:29;;;;;;;48.92;22.70;;;7.10;99.90;;;;;;5085614;28;20229;-73
2021/11/17 08:02:01;;;;;;;60.05;26.25;;;7.00;99.90;;;;;;5099013;28;20249;-71
2021/11/17 08:04:34;;;;;;;57.33;24.10;;;7.00;99.90;;;;;;5085111;28;20202;-71
2021/11/17 08:07:02;;;;;;;56.83;25.10;;;7.00;99.90;;;;;;5079845;28;20228;-72
2021/11/17 08:09:31;;;;;;;52.90;23.33;;;7.10;99.90;;;;;;5077455;28;20204;-72
2021/11/17 08:11:58;;;;;;;53.20;24.83;;;7.20;99.90;;;;;;5088469;28;20205;-72
2021/11/17 08:14:25;;;;;;;45.63;21.20;;;7.30;99.90;;;;;;5080954;28;20600;-72
2021/11/17 08:16:52;;;;;;;43.65;21.85;;;7.40;99.90;;;;;;5079956;28;20218;-72
2021/11/17 08:19:19;;;;;;;38.25;21.63;;;7.40;99.90;;;;;;5081906;28;20281;-72
2021/11/17 08:21:46;;;;;;;45.13;21.05;;;7.40;99.90;;;;;;5083195;28;20663;-72
2021/11/17 08:24:14;;;;;;;39.75;20.63;;;7.40;99.90;;;;;;5087432;28;20260;-71
2021/11/17 08:26:42;;;;;;;37.65;20.75;;;7.40;99.90;;;;;;5083824;28;20221;-72
2021/11/17 08:29:10;;;;;;;41.53;19.45;;;7.40;99.90;;;;;;5085996;28;20213;-73
2021/11/17 08:31:37;;;;;;;37.03;19.50;;;7.40;99.90;;;;;;5091145;28;20224;-72
2021/11/17 08:34:04;;;;;;;39.78;19.10;;;7.40;99.90;;;;;;5093003;28;20658;-74
2021/11/17 08:36:32;;;;;;;43.00;19.02;;;7.50;99.90;;;;;;5081999;28;20230;-72
2021/11/17 08:38:59;;;;;;;35.30;19.00;;;7.40;99.90;;;;;;5095618;28;20256;-72
2021/11/17 08:41:28;;;;;;;44.70;18.33;;;7.40;99.90;;;;;;5090493;28;20283;-75
2021/11/17 08:43:56;;;;;;;41.20;20.63;;;7.30;99.90;;;;;;5086862;28;20312;-73
2021/11/17 08:46:24;;;;;;;35.78;18.13;;;7.30;99.90;;;;;;5100798;28;20221;-73
2021/11/17 08:48:53;;;;;;;38.75;20.23;;;7.40;99.90;;;;;;5096393;28;20202;-74
2021/11/17 08:51:26;;;;;;;39.70;20.15;;;7.30;99.90;;;;;;5079967;28;20228;-73
2021/11/17 08:53:53;;;;;;;38.25;20.52;;;7.30;99.90;;;;;;5084421;28;20316;-73
2021/11/17 08:56:20;;;;;;;41.58;19.73;;;7.20;99.90;;;;;;5085881;28;20226;-72
2021/11/17 08:58:47;;;;;;;40.60;19.42;;;7.20;99.90;;;;;;5079535;28;20251;-72
2021/11/17 09:01:16;;;;;;;37.67;18.17;;;7.10;99.90;;;;;;5082262;28;20245;-72
2021/11/17 09:03:43;;;;;;;37.35;20.15;;;7.30;99.90;;;;;;5087723;28;20218;-71
2021/11/17 09:06:12;;;;;;;48.10;20.63;;;7.30;99.90;;;;;;5078279;28;20233;-72
2021/11/17 09:08:39;;;;;;;46.25;20.98;;;7.30;99.90;;;;;;5101541;28;20200;-73
2021/11/17 09:11:08;;;;;;;55.22;23.27;;;7.30;99.90;;;;;;5109282;28;20259;-72
2021/11/17 09:13:37;;;;;;;45.15;20.67;;;7.40;99.90;;;;;;5103132;28;20239;-73
2021/11/17 09:16:06;;;;;;;60.95;26.42;;;7.40;99.90;;;;;;5101319;28;20274;-72
2021/11/17 09:18:36;;;;;;;45.53;21.65;;;7.40;99.90;;;;;;5094498;28;20269;-71
2021/11/17 09:21:08;;;;;;;54.25;23.42;;;7.40;99.90;;;;;;5105118;28;20663;-72
2021/11/17 09:23:35;;;;;;;50.45;23.02;;;7.50;99.90;;;;;;5101070;28;20674;-72
2021/11/17 09:26:03;;;;;;;39.67;21.63;;;7.50;99.90;;;;;;5096744;28;20232;-73
2021/11/17 09:28:33;;;;;;;45.25;22.88;;;7.50;99.90;;;;;;5101424;28;20209;-73
2021/11/17 09:31:00;;;;;;;52.53;23.50;;;7.50;99.90;;;;;;5096427;28;20212;-72
2021/11/17 09:33:29;;;;;;;57.33;22.80;;;7.50;99.90;;;;;;5094524;28;20223;-73
2021/11/17 09:35:58;;;;;;;48.50;23.77;;;7.60;99.90;;;;;;5099426;28;20229;-73
2021/11/17 09:38:26;;;;;;;50.55;23.52;;;7.60;99.90;;;;;;5096327;28;20278;-73
2021/11/17 09:40:55;;;;;;;52.83;25.13;;;7.60;99.90;;;;;;5097704;28;20243;-71
2021/11/17 09:43:26;;;;;;;56.28;25.40;;;7.60;99.90;;;;;;5096050;28;20218;-71
2021/11/17 09:45:54;;;;;;;52.30;25.48;;;7.60;99.90;;;;;;5102784;28;20221;-73
2021/11/17 09:48:24;;;;;;;42.40;22.05;;;7.70;99.90;;;;;;5093940;28;20263;-72
2021/11/17 09:50:56;;;;;;;50.50;24.45;;;7.60;99.90;;;;;;5104464;28;20269;-72
2021/11/17 09:53:31;;;;;;;47.67;25.75;;;7.70;99.90;;;;;;5097406;28;20247;-72
2021/11/17 09:56:01;;;;;;;53.53;24.17;;;7.70;99.90;;;;;;5096238;28;20216;-71
2021/11/17 09:58:32;;;;;;;48.72;23.05;;;7.80;99.90;;;;;;5100798;28;20197;-72
2021/11/17 10:01:02;;;;;;;46.72;26.58;;;7.80;99.90;;;;;;5096705;28;20202;-72
2021/11/17 10:03:34;;;;;;;48.78;23.92;;;7.90;99.90;;;;;;5098559;28;20262;-72
2021/11/17 10:06:33;;;;;;;48.25;26.02;;;7.90;99.90;;;;;;5097498;28;20275;-72
2021/11/17 10:12:02;;;;;;;54.17;26.08;;;8.00;99.90;;;;;;5097482;28;20234;-73
2021/11/17 10:14:35;;;;;;;46.17;26.67;;;8.00;99.90;;;;;;5089641;28;20233;-72
2021/11/17 10:17:36;;;;;;;50.50;24.73;;;8.00;99.90;;;;;;5100385;28;20232;-72
2021/11/17 10:20:15;;;;;;;61.95;27.08;;;7.90;99.90;;;;;;5097246;28;20333;-73
2021/11/17 10:22:46;;;;;;;51.83;27.60;;;8.00;99.90;;;;;;5092929;28;20299;-72
2021/11/17 10:25:15;;;;;;;57.60;27.52;;;8.00;99.90;;;;;;5100287;28;20631;-72
2021/11/17 10:27:50;;;;;;;56.08;26.98;;;8.00;99.90;;;;;;5100501;28;20201;-72
2021/11/17 10:30:26;;;;;;;64.47;29.55;;;8.00;99.90;;;;;;5086643;28;20200;-72
2021/11/17 10:33:05;;;;;;;63.50;29.75;;;8.10;99.90;;;;;;5097827;28;20582;-72
2021/11/17 10:35:35;;;;;;;53.70;27.73;;;8.10;99.90;;;;;;5090882;28;20245;-72
2021/11/17 10:38:07;;;;;;;59.10;27.48;;;8.10;99.90;;;;;;5093189;28;20259;-72
2021/11/17 10:40:46;;;;;;;61.55;29.63;;;8.10;99.90;;;;;;5095598;28;20713;-72
2021/11/17 10:43:18;;;;;;;56.33;29.55;;;8.20;99.90;;;;;;5097200;28;20737;-71
2021/11/17 10:45:48;;;;;;;62.45;28.35;;;8.30;99.90;;;;;;5096761;28;20226;-71
2021/11/17 10:48:23;;;;;;;57.05;30.10;;;8.30;99.90;;;;;;5100306;28;20556;-72
2021/11/17 10:50:51;;;;;;;58.85;30.42;;;8.40;99.90;;;;;;5098960;28;20197;-71
2021/11/17 10:53:29;;;;;;;54.13;28.60;;;8.30;99.90;;;;;;5088070;28;20201;-73
2021/11/17 10:55:59;;;;;;;61.00;30.77;;;8.30;99.90;;;;;;5099877;28;20695;-72
2021/11/17 10:58:28;;;;;;;61.28;29.00;;;8.40;99.90;;;;;;5097643;28;20198;-72
2021/11/17 11:00:58;;;;;;;53.42;28.40;;;8.40;99.90;;;;;;5100708;28;20261;-73
2021/11/17 11:03:30;;;;;;;56.30;30.17;;;8.40;99.90;;;;;;5099880;28;20214;-73
2021/11/17 11:06:02;;;;;;;65.70;32.50;;;8.50;99.90;;;;;;5102973;28;20297;-72
2021/11/17 11:08:35;;;;;;;55.70;30.23;;;8.60;99.90;;;;;;5092125;28;20313;-73
2021/11/17 11:11:05;;;;;;;72.07;30.63;;;8.60;99.90;;;;;;5098674;28;20250;-73
2021/11/17 11:13:37;;;;;;;61.30;31.35;;;8.70;99.90;;;;;;5100650;28;20251;-72
2021/11/17 11:16:11;;;;;;;60.85;31.02;;;8.70;99.90;;;;;;5091693;28;20221;-72
2021/11/17 11:18:45;;;;;;;70.25;30.98;;;8.80;99.90;;;;;;5092184;28;20664;-72
2021/11/17 11:21:15;;;;;;;69.22;36.17;;;8.80;99.90;;;;;;5091343;28;20247;-74
2021/11/17 11:24:09;;;;;;;70.57;30.83;;;8.80;99.90;;;;;;5102055;28;20202;-72
2021/11/17 11:27:13;;;;;;;65.43;34.25;;;8.80;99.90;;;;;;5100525;28;20226;-71
2021/11/17 11:29:41;;;;;;;69.10;30.33;;;8.80;99.90;;;;;;5087613;28;20202;-71
2021/11/17 11:32:10;;;;;;;72.60;34.72;;;8.80;99.90;;;;;;5091715;28;20285;-72
2021/11/17 11:35:08;;;;;;;63.47;31.02;;;8.90;99.90;;;;;;5092920;28;20199;-71
2021/11/17 11:38:01;;;;;;;64.60;33.28;;;9.00;99.90;;;;;;5086641;28;20260;-72
2021/11/17 11:41:02;;;;;;;54.05;30.27;;;9.00;99.90;;;;;;5099355;28;20224;-72
2021/11/17 11:43:29;;;;;;;70.47;35.55;;;9.10;99.90;;;;;;5097407;28;20218;-71
2021/11/17 11:46:17;;;;;;;76.88;34.88;;;9.10;99.90;;;;;;5094551;28;20229;-71
2021/11/17 11:49:00;;;;;;;64.47;36.63;;;9.10;99.90;;;;;;5094027;28;20202;-72
2021/11/17 11:52:12;;;;;;;66.70;34.05;;;9.10;99.90;;;;;;5090113;28;20194;-72
2021/11/17 11:55:12;;;;;;;57.47;31.58;;;9.20;99.90;;;;;;5100379;28;20577;-72
2021/11/17 11:57:42;;;;;;;65.10;33.00;;;9.20;99.90;;;;;;5099008;28;20198;-72
2021/11/17 12:00:13;;;;;;;80.00;36.03;;;9.20;99.90;;;;;;5097350;28;20198;-72
2021/11/17 12:02:45;;;;;;;70.80;36.05;;;9.20;99.90;;;;;;5095904;28;20505;-73
2021/11/17 12:05:25;;;;;;;58.97;30.67;;;9.20;99.90;;;;;;5095138;28;20210;-71
2021/11/17 12:07:55;;;;;;;56.05;31.27;;;9.20;99.90;;;;;;5099509;28;20208;-72
2021/11/17 12:10:29;;;;;;;54.33;30.35;;;9.10;99.90;;;;;;5098182;28;20206;-72
2021/11/17 12:12:56;;;;;;;49.38;28.20;;;9.20;99.90;;;;;;5094318;28;20285;-72
2021/11/17 12:15:37;;;;;;;47.75;27.92;;;9.30;99.90;;;;;;5100438;28;20275;-71
2021/11/17 12:18:14;;;;;;;51.70;27.30;;;9.30;99.90;;;;;;5098615;28;20206;-71
2021/11/17 12:20:46;;;;;;;47.83;26.33;;;9.40;99.90;;;;;;5107321;28;20212;-73
2021/11/17 12:23:19;;;;;;;40.95;25.38;;;9.30;99.90;;;;;;5098999;28;20256;-72
2021/11/17 12:26:02;;;;;;;44.97;24.30;;;9.30;99.90;;;;;;5096384;28;20219;-71
2021/11/17 12:28:31;;;;;;;43.65;25.00;;;9.40;99.90;;;;;;5098194;28;20566;-71
2021/11/17 12:31:05;;;;;;;38.38;22.98;;;9.40;99.90;;;;;;5098636;28;20195;-71
2021/11/17 12:33:43;;;;;;;39.40;24.30;;;9.40;99.90;;;;;;5094982;28;20273;-71
2021/11/17 12:36:20;;;;;;;38.00;23.92;;;9.40;99.90;;;;;;5095522;28;20238;-72
2021/11/17 12:38:48;;;;;;;42.50;23.25;;;9.50;99.90;;;;;;5099694;28;20282;-71
2021/11/17 12:41:21;;;;;;;44.72;22.77;;;9.50;99.90;;;;;;5095449;28;20199;-71
2021/11/17 12:43:58;;;;;;;42.80;23.48;;;9.50;99.90;;;;;;5095676;28;20668;-72
2021/11/17 12:46:30;;;;;;;39.25;23.60;;;9.50;99.90;;;;;;5098624;28;20651;-71
2021/11/17 12:49:13;;;;;;;34.45;21.67;;;9.60;99.90;;;;;;5095014;28;20203;-71
2021/11/17 12:51:46;;;;;;;34.63;22.85;;;9.60;99.90;;;;;;5089755;28;20202;-73
2021/11/17 12:54:17;;;;;;;43.05;24.67;;;9.60;99.90;;;;;;5094909;28;20290;-71
2021/11/17 12:56:53;;;;;;;39.33;23.92;;;9.70;99.90;;;;;;5099509;28;20604;-72
2021/11/17 12:59:23;;;;;;;36.40;24.23;;;9.70;99.90;;;;;;5091635;28;20216;-72
2021/11/17 13:01:54;;;;;;;33.50;21.70;;;9.70;99.90;;;;;;5095409;28;20241;-71
2021/11/17 13:04:29;;;;;;;36.97;23.30;;;9.80;99.90;;;;;;5100369;28;20232;-71
2021/11/17 13:07:00;;;;;;;38.97;22.38;;;9.80;99.90;;;;;;5097154;28;20261;-72
2021/11/17 13:09:30;;;;;;;38.42;22.92;;;9.90;99.90;;;;;;5102345;28;20655;-71
2021/11/17 13:12:18;;;;;;;32.10;20.98;;;10.00;99.90;;;;;;5095725;28;20205;-71
2021/11/17 13:15:21;;;;;;;41.15;23.45;;;10.00;99.90;;;;;;5091810;28;20212;-71
2021/11/17 13:17:49;;;;;;;32.08;20.10;;;10.00;99.90;;;;;;5035981;28;20299;-71
2021/11/17 13:20:38;;;;;;;32.05;20.65;;;10.00;99.90;;;;;;5080188;28;20593;-72
2021/11/17 13:23:31;;;;;;;32.28;22.10;;;10.10;99.90;;;;;;5094374;28;20289;-72
2021/11/17 13:26:11;;;;;;;32.30;20.38;;;10.30;99.90;;;;;;5100615;28;20335;-71
2021/11/17 13:28:41;;;;;;;37.65;20.55;;;10.30;99.90;;;;;;5100336;28;20285;-72
2021/11/17 13:31:26;;;;;;;33.63;21.55;;;10.40;99.90;;;;;;5095903;28;20610;-72
2021/11/17 13:33:55;;;;;;;33.20;21.55;;;10.30;99.90;;;;;;5094797;28;20575;-70
2021/11/17 13:36:38;;;;;;;31.08;18.02;;;10.40;99.90;;;;;;5094028;28;20708;-72
2021/11/17 13:39:07;;;;;;;31.58;16.80;;;10.40;99.90;;;;;;5100188;28;20208;-71
2021/11/17 13:41:34;;;;;;;26.05;16.02;;;10.30;99.90;;;;;;5100063;28;20202;-71
2021/11/17 13:44:03;;;;;;;30.52;19.67;;;10.30;99.90;;;;;;5106473;28;20209;-70
2021/11/17 13:46:30;;;;;;;28.73;17.27;;;10.20;99.90;;;;;;5095933;28;20653;-71
2021/11/17 13:48:57;;;;;;;30.95;16.67;;;10.20;99.90;;;;;;5104800;28;20217;-71
2021/11/17 13:51:27;;;;;;;31.23;18.85;;;10.20;99.90;;;;;;5098788;28;20602;-71
2021/11/17 13:53:55;;;;;;;26.70;16.92;;;10.20;99.90;;;;;;5097129;28;20196;-71
2021/11/17 13:56:26;;;;;;;33.38;18.38;;;10.20;99.90;;;;;;5092916;28;20598;-72
2021/11/17 13:58:55;;;;;;;27.80;17.10;;;10.20;99.90;;;;;;5093715;28;20292;-71
2021/11/17 14:01:22;;;;;;;32.28;16.50;;;10.20;99.90;;;;;;5093971;28;20207;-70
2021/11/17 14:03:50;;;;;;;37.20;17.70;;;10.20;99.90;;;;;;5093754;28;20199;-73
2021/11/17 14:06:19;;;;;;;28.17;16.13;;;10.10;99.90;;;;;;5093163;28;20265;-71
2021/11/17 14:08:46;;;;;;;31.45;18.20;;;10.00;99.90;;;;;;5096571;28;20326;-72
2021/11/17 14:11:15;;;;;;;47.92;19.77;;;9.90;99.90;;;;;;5102127;28;20255;-72
2021/11/17 14:13:45;;;;;;;25.45;16.27;;;9.80;99.90;;;;;;5095290;28;20621;-72
2021/11/17 14:16:13;;;;;;;33.50;17.67;;;9.80;99.90;;;;;;5092712;28;20499;-72
2021/11/17 14:18:40;;;;;;;26.98;16.00;;;9.80;99.90;;;;;;5095129;28;20230;-71
2021/11/17 14:21:10;;;;;;;33.97;20.33;;;9.90;99.90;;;;;;5095569;28;20279;-72
2021/11/17 14:23:39;;;;;;;36.95;21.88;;;10.00;99.90;;;;;;5099939;28;20198;-73
2021/11/17 14:26:10;;;;;;;33.40;18.02;;;10.00;99.90;;;;;;5082236;28;20222;-72
2021/11/17 14:28:40;;;;;;;29.38;16.55;;;10.00;99.90;;;;;;5094995;28;20226;-70
2021/11/17 14:31:13;;;;;;;31.05;16.98;;;10.00;99.90;;;;;;5093173;28;20203;-71
2021/11/17 14:33:40;;;;;;;39.88;19.98;;;10.00;99.90;;;;;;5092836;28;20233;-71
2021/11/17 14:36:10;;;;;;;43.13;19.48;;;9.90;99.90;;;;;;5092339;28;20235;-71
2021/11/17 14:38:38;;;;;;;33.58;15.88;;;9.90;99.90;;;;;;5101484;28;20281;-71
2021/11/17 14:41:06;;;;;;;31.65;17.25;;;10.00;99.90;;;;;;5093806;28;20281;-71
2021/11/17 14:43:33;;;;;;;39.10;17.38;;;9.90;99.90;;;;;;5099159;28;20197;-72
2021/11/17 14:46:00;;;;;;;33.60;16.83;;;10.00;99.90;;;;;;5097006;28;20230;-70
2021/11/17 14:48:32;;;;;;;27.48;17.35;;;9.90;99.90;;;;;;5100241;28;20206;-71
2021/11/17 14:51:00;;;;;;;32.53;16.85;;;9.90;99.90;;;;;;5092916;28;20191;-71
2021/11/17 14:53:28;;;;;;;32.72;17.63;;;9.80;99.90;;;;;;5102452;28;20247;-71
2021/11/17 14:55:55;;;;;;;37.78;16.98;;;9.80;99.90;;;;;;5097894;28;20214;-76
2021/11/17 14:58:22;;;;;;;30.48;16.15;;;9.80;99.90;;;;;;5096331;28;20237;-71
2021/11/17 15:00:55;;;;;;;28.55;15.98;;;9.70;99.90;;;;;;5099534;28;20198;-70
2021/11/17 15:03:23;;;;;;;32.67;17.63;;;9.70;99.90;;;;;;5097087;28;20267;-71
2021/11/17 15:05:51;;;;;;;36.05;16.98;;;9.70;99.90;;;;;;5096082;28;20283;-71
2021/11/17 15:08:19;;;;;;;30.88;16.17;;;9.60;99.90;;;;;;5090599;28;20202;-71
2021/11/17 15:10:47;;;;;;;35.42;17.27;;;9.60;99.90;;;;;;5096771;28;20209;-70
2021/11/17 15:13:16;;;;;;;30.15;16.75;;;9.50;99.90;;;;;;5100347;28;20195;-70
2021/11/17 15:15:45;;;;;;;40.22;17.88;;;9.50;99.90;;;;;;5094951;28;20266;-71
2021/11/17 15:18:16;;;;;;;34.28;17.08;;;9.50;99.90;;;;;;5092212;28;20207;-71
2021/11/17 15:20:43;;;;;;;25.13;15.98;;;9.50;99.90;;;;;;5095579;28;20283;-70
2021/11/17 15:23:11;;;;;;;38.00;16.58;;;9.40;99.90;;;;;;5091526;28;20221;-71
2021/11/17 15:25:41;;;;;;;28.77;16.52;;;9.40;99.90;;;;;;5099716;28;20276;-70
2021/11/17 15:28:10;;;;;;;24.48;13.40;;;9.40;99.90;;;;;;5094939;28;20309;-70
2021/11/17 15:30:40;;;;;;;28.15;16.42;;;9.40;99.90;;;;;;5094082;28;20263;-70
2021/11/17 15:33:08;;;;;;;27.85;15.30;;;9.40;99.90;;;;;;5099744;28;20288;-70
2021/11/17 15:35:36;;;;;;;35.58;17.38;;;9.40;99.90;;;;;;5090856;28;20253;-71
2021/11/17 15:38:05;;;;;;;39.35;16.13;;;9.30;99.90;;;;;;5091732;28;20687;-71
2021/11/17 15:40:37;;;;;;;27.90;15.43;;;9.30;99.90;;;;;;5093008;28;20183;-71
2021/11/17 15:43:05;;;;;;;23.70;13.70;;;9.30;99.90;;;;;;5096833;28;20651;-71
2021/11/17 15:45:33;;;;;;;30.80;15.23;;;9.30;99.90;;;;;;5095431;28;20222;-70